sensor_id;sensor_type;location;lat;lon;timestamp;temperature;humidity
47626;DHT22;33342;45.574;9.252;2023-03-12T00:00:04;15.90;99.90
47626;DHT22;33342;45.574;9.252;2023-03-12T00:02:34;15.90;99.90
47626;DHT22;33342;45.574;9.252;2023-03-12T00:05:02;15.90;99.90
47626;DHT22;33342;45.574;9.252;2023-03-12T00:07:29;15.80;99.90
47626;DHT22;33342;45.574;9.252;2023-03-12T00:09:56;15.80;99.90
47626;DHT22;33342;45.574;9.252;2023-03-12T00:12:23;15.70;99.90
47626;DHT22;33342;45.574;9.252;2023-03-12T00:14:50;15.70;99.90
47626;DHT22;33342;45.574;9.252;2023-03-12T00:17:17;15.70;99.90
47626;DHT22;33342;45.574;9.252;2023-03-12T00:19:44;15.70;99.90
47626;DHT22;33342;45.574;9.252;2023-03-12T00:22:11;15.60;99.90
47626;DHT22;33342;45.574;9.252;2023-03-12T00:24:38;15.60;99.90
47626;DHT22;33342;45.574;9.252;2023-03-12T00:27:06;15.60;99.90
47626;DHT22;33342;45.574;9.252;2023-03-12T00:29:32;15.60;99.90
47626;DHT22;33342;45.574;9.252;2023-03-12T00:31:59;15.50;99.90
47626;DHT22;33342;45.574;9.252;2023-03-12T00:34:26;15.50;99.90
47626;DHT22;33342;45.574;9.252;2023-03-12T00:36:53;15.50;99.90
47626;DHT22;33342;45.574;9.252;2023-03-12T00:39:22;15.50;99.90
47626;DHT22;33342;45.574;9.252;2023-03-12T00:41:49;15.50;99.90
47626;DHT22;33342;45.574;9.252;2023-03-12T00:44:16;15.50;99.90
47626;DHT22;33342;45.574;9.252;2023-03-12T00:46:43;15.50;99.90
47626;DHT22;33342;45.574;9.252;2023-03-12T00:49:10;15.50;99.90
47626;DHT22;33342;45.574;9.252;2023-03-12T00:51:38;15.50;99.90
47626;DHT22;33342;45.574;9.252;2023-03-12T00:54:05;15.50;99.90
47626;DHT22;33342;45.574;9.252;2023-03-12T00:56:32;15.50;99.90
47626;DHT22;33342;45.574;9.252;2023-03-12T00:58:59;15.50;99.90
47626;DHT22;33342;45.574;9.252;2023-03-12T01:01:27;15.50;99.90
47626;DHT22;33342;45.574;9.252;2023-03-12T01:03:54;15.40;99.90
47626;DHT22;33342;45.574;9.252;2023-03-12T01:06:21;15.40;99.90
47626;DHT22;33342;45.574;9.252;2023-03-12T01:08:48;15.40;99.90
47626;DHT22;33342;45.574;9.252;2023-03-12T01:11:18;15.40;99.90
47626;DHT22;33342;45.574;9.252;2023-03-12T01:13:45;15.30;99.90
47626;DHT22;33342;45.574;9.252;2023-03-12T01:16:12;15.40;99.90
47626;DHT22;33342;45.574;9.252;2023-03-12T01:18:39;15.30;99.90
47626;DHT22;33342;45.574;9.252;2023-03-12T01:21:07;15.30;99.90
47626;DHT22;33342;45.574;9.252;2023-03-12T01:23:34;15.30;99.90
47626;DHT22;33342;45.574;9.252;2023-03-12T01:26:00;15.30;99.90
47626;DHT22;33342;45.574;9.252;2023-03-12T01:28:28;15.30;99.90
47626;DHT22;33342;45.574;9.252;2023-03-12T01:30:55;15.30;99.90
47626;DHT22;33342;45.574;9.252;2023-03-12T01:33:22;15.30;99.90
47626;DHT22;33342;45.574;9.252;2023-03-12T01:35:49;15.30;99.90
47626;DHT22;33342;45.574;9.252;2023-03-12T01:38:16;15.20;99.90
47626;DHT22;33342;45.574;9.252;2023-03-12T01:40:44;15.20;99.90
47626;DHT22;33342;45.574;9.252;2023-03-12T01:43:33;15.20;99.90
47626;DHT22;33342;45.574;9.252;2023-03-12T01:48:38;15.20;99.90
47626;DHT22;33342;45.574;9.252;2023-03-12T01:51:08;15.20;99.90
47626;DHT22;33342;45.574;9.252;2023-03-12T01:53:37;15.20;99.90
47626;DHT22;33342;45.574;9.252;2023-03-12T01:56:04;15.20;99.90
47626;DHT22;33342;45.574;9.252;2023-03-12T01:58:34;15.10;99.90
47626;DHT22;33342;45.574;9.252;2023-03-12T02:01:03;15.20;99.90
47626;DHT22;33342;45.574;9.252;2023-03-12T02:03:31;15.10;99.90
47626;DHT22;33342;45.574;9.252;2023-03-12T02:06:06;15.10;99.90
47626;DHT22;33342;45.574;9.252;2023-03-12T02:08:36;15.10;99.90
47626;DHT22;33342;45.574;9.252;2023-03-12T02:11:03;15.10;99.90
47626;DHT22;33342;45.574;9.252;2023-03-12T02:13:33;15.10;99.90
47626;DHT22;33342;45.574;9.252;2023-03-12T02:16:01;15.10;99.90
47626;DHT22;33342;45.574;9.252;2023-03-12T02:18:28;15.10;99.90
47626;DHT22;33342;45.574;9.252;2023-03-12T02:21:15;15.00;99.90
47626;DHT22;33342;45.574;9.252;2023-03-12T02:24:13;15.00;99.90
47626;DHT22;33342;45.574;9.252;2023-03-12T02:26:43;15.00;99.90
47626;DHT22;33342;45.574;9.252;2023-03-12T02:29:11;15.00;99.90
47626;DHT22;33342;45.574;9.252;2023-03-12T02:31:43;15.00;99.90
47626;DHT22;33342;45.574;9.252;2023-03-12T02:34:12;15.00;99.90
47626;DHT22;33342;45.574;9.252;2023-03-12T02:36:39;15.00;99.90
47626;DHT22;33342;45.574;9.252;2023-03-12T02:39:06;15.00;99.90
47626;DHT22;33342;45.574;9.252;2023-03-12T02:41:38;15.00;99.90
47626;DHT22;33342;45.574;9.252;2023-03-12T02:46:59;14.90;99.90
47626;DHT22;33342;45.574;9.252;2023-03-12T02:49:30;14.90;99.90
47626;DHT22;33342;45.574;9.252;2023-03-12T02:51:58;14.90;99.90
47626;DHT22;33342;45.574;9.252;2023-03-12T02:54:26;14.90;99.90
47626;DHT22;33342;45.574;9.252;2023-03-12T02:56:54;14.90;99.90
47626;DHT22;33342;45.574;9.252;2023-03-12T02:59:22;14.90;99.90
47626;DHT22;33342;45.574;9.252;2023-03-12T03:01:57;14.90;99.90
47626;DHT22;33342;45.574;9.252;2023-03-12T03:04:25;14.90;99.90
47626;DHT22;33342;45.574;9.252;2023-03-12T03:06:53;14.80;99.90
47626;DHT22;33342;45.574;9.252;2023-03-12T03:09:20;14.80;99.90
47626;DHT22;33342;45.574;9.252;2023-03-12T03:11:49;14.80;99.90
47626;DHT22;33342;45.574;9.252;2023-03-12T03:14:17;14.80;99.90
47626;DHT22;33342;45.574;9.252;2023-03-12T03:16:47;14.80;99.90
47626;DHT22;33342;45.574;9.252;2023-03-12T03:19:14;14.80;99.90
47626;DHT22;33342;45.574;9.252;2023-03-12T03:21:41;14.70;99.90
47626;DHT22;33342;45.574;9.252;2023-03-12T03:24:09;14.70;99.90
47626;DHT22;33342;45.574;9.252;2023-03-12T03:26:39;14.70;99.90
47626;DHT22;33342;45.574;9.252;2023-03-12T03:29:06;14.70;99.90
47626;DHT22;33342;45.574;9.252;2023-03-12T03:31:36;14.70;99.90
47626;DHT22;33342;45.574;9.252;2023-03-12T03:34:03;14.70;99.90
47626;DHT22;33342;45.574;9.252;2023-03-12T03:36:30;14.70;99.90
47626;DHT22;33342;45.574;9.252;2023-03-12T03:39:02;14.70;99.90
47626;DHT22;33342;45.574;9.252;2023-03-12T03:41:30;14.70;99.90
47626;DHT22;33342;45.574;9.252;2023-03-12T03:43:58;14.70;99.90
47626;DHT22;33342;45.574;9.252;2023-03-12T03:46:28;14.60;99.90
47626;DHT22;33342;45.574;9.252;2023-03-12T03:49:02;14.60;99.90
47626;DHT22;33342;45.574;9.252;2023-03-12T03:51:30;14.60;99.90
47626;DHT22;33342;45.574;9.252;2023-03-12T03:54:03;14.50;99.90
47626;DHT22;33342;45.574;9.252;2023-03-12T03:56:30;14.50;99.90
47626;DHT22;33342;45.574;9.252;2023-03-12T03:58:59;14.50;99.90
47626;DHT22;33342;45.574;9.252;2023-03-12T04:01:29;14.50;99.90
47626;DHT22;33342;45.574;9.252;2023-03-12T04:03:58;14.40;99.90
47626;DHT22;33342;45.574;9.252;2023-03-12T04:06:27;14.50;99.90
47626;DHT22;33342;45.574;9.252;2023-03-12T04:08:56;14.50;99.90
47626;DHT22;33342;45.574;9.252;2023-03-12T04:11:25;14.40;99.90
47626;DHT22;33342;45.574;9.252;2023-03-12T04:13:54;14.40;99.90
47626;DHT22;33342;45.574;9.252;2023-03-12T04:16:23;14.40;99.90
47626;DHT22;33342;45.574;9.252;2023-03-12T04:18:52;14.40;99.90
47626;DHT22;33342;45.574;9.252;2023-03-12T04:21:21;14.40;99.90
47626;DHT22;33342;45.574;9.252;2023-03-12T04:23:49;14.30;99.90
47626;DHT22;33342;45.574;9.252;2023-03-12T04:26:19;14.30;99.90
47626;DHT22;33342;45.574;9.252;2023-03-12T04:28:46;14.30;99.90
47626;DHT22;33342;45.574;9.252;2023-03-12T04:31:14;14.30;99.90
47626;DHT22;33342;45.574;9.252;2023-03-12T04:33:47;14.30;99.90
47626;DHT22;33342;45.574;9.252;2023-03-12T04:36:20;14.30;99.90
47626;DHT22;33342;45.574;9.252;2023-03-12T04:38:48;14.30;99.90
47626;DHT22;33342;45.574;9.252;2023-03-12T04:41:19;14.30;99.90
47626;DHT22;33342;45.574;9.252;2023-03-12T04:43:54;14.20;99.90
47626;DHT22;33342;45.574;9.252;2023-03-12T04:46:22;14.20;99.90
47626;DHT22;33342;45.574;9.252;2023-03-12T04:48:49;14.20;99.90
47626;DHT22;33342;45.574;9.252;2023-03-12T04:51:17;14.20;99.90
47626;DHT22;33342;45.574;9.252;2023-03-12T04:53:44;14.20;99.90
47626;DHT22;33342;45.574;9.252;2023-03-12T04:56:14;14.20;99.90
47626;DHT22;33342;45.574;9.252;2023-03-12T04:58:43;14.10;99.90
47626;DHT22;33342;45.574;9.252;2023-03-12T05:01:31;14.10;99.90
47626;DHT22;33342;45.574;9.252;2023-03-12T05:04:02;14.10;99.90
47626;DHT22;33342;45.574;9.252;2023-03-12T05:06:29;14.10;99.90
47626;DHT22;33342;45.574;9.252;2023-03-12T05:08:56;14.10;99.90
47626;DHT22;33342;45.574;9.252;2023-03-12T05:11:23;14.10;99.90
47626;DHT22;33342;45.574;9.252;2023-03-12T05:13:50;14.10;99.90
47626;DHT22;33342;45.574;9.252;2023-03-12T05:16:18;14.10;99.90
47626;DHT22;33342;45.574;9.252;2023-03-12T05:18:45;14.00;99.90
47626;DHT22;33342;45.574;9.252;2023-03-12T05:21:17;14.00;99.90
47626;DHT22;33342;45.574;9.252;2023-03-12T05:23:45;14.00;99.90
47626;DHT22;33342;45.574;9.252;2023-03-12T05:26:32;14.00;99.90
47626;DHT22;33342;45.574;9.252;2023-03-12T05:29:10;14.00;99.90
47626;DHT22;33342;45.574;9.252;2023-03-12T05:31:37;14.00;99.90
47626;DHT22;33342;45.574;9.252;2023-03-12T05:34:05;13.90;99.90
47626;DHT22;33342;45.574;9.252;2023-03-12T05:36:37;13.90;99.90
47626;DHT22;33342;45.574;9.252;2023-03-12T05:39:04;13.90;99.90
47626;DHT22;33342;45.574;9.252;2023-03-12T05:41:33;13.90;99.90
47626;DHT22;33342;45.574;9.252;2023-03-12T05:44:11;13.90;99.90
47626;DHT22;33342;45.574;9.252;2023-03-12T05:46:41;13.90;99.90
47626;DHT22;33342;45.574;9.252;2023-03-12T05:49:09;13.90;99.90
47626;DHT22;33342;45.574;9.252;2023-03-12T05:51:37;13.90;99.90
47626;DHT22;33342;45.574;9.252;2023-03-12T05:54:05;13.80;99.90
47626;DHT22;33342;45.574;9.252;2023-03-12T05:56:32;13.80;99.90
47626;DHT22;33342;45.574;9.252;2023-03-12T05:59:02;13.80;99.90
47626;DHT22;33342;45.574;9.252;2023-03-12T06:01:30;13.80;99.90
47626;DHT22;33342;45.574;9.252;2023-03-12T06:04:00;13.80;99.90
47626;DHT22;33342;45.574;9.252;2023-03-12T06:06:29;13.80;99.90
47626;DHT22;33342;45.574;9.252;2023-03-12T06:08:57;13.80;99.90
47626;DHT22;33342;45.574;9.252;2023-03-12T06:11:24;13.80;99.90
47626;DHT22;33342;45.574;9.252;2023-03-12T06:13:55;13.80;99.90
47626;DHT22;33342;45.574;9.252;2023-03-12T06:16:24;13.80;99.90
47626;DHT22;33342;45.574;9.252;2023-03-12T06:18:54;13.80;99.90
47626;DHT22;33342;45.574;9.252;2023-03-12T06:21:23;13.80;99.90
47626;DHT22;33342;45.574;9.252;2023-03-12T06:23:51;13.80;99.90
47626;DHT22;33342;45.574;9.252;2023-03-12T06:26:24;13.80;99.90
47626;DHT22;33342;45.574;9.252;2023-03-12T06:28:52;13.80;99.90
47626;DHT22;33342;45.574;9.252;2023-03-12T06:31:20;13.90;99.90
47626;DHT22;33342;45.574;9.252;2023-03-12T06:33:47;13.90;99.90
47626;DHT22;33342;45.574;9.252;2023-03-12T06:36:15;13.90;99.90
47626;DHT22;33342;45.574;9.252;2023-03-12T06:38:42;13.90;99.90
47626;DHT22;33342;45.574;9.252;2023-03-12T06:41:12;13.90;99.90
47626;DHT22;33342;45.574;9.252;2023-03-12T06:43:42;13.90;99.90
47626;DHT22;33342;45.574;9.252;2023-03-12T06:46:12;13.90;99.90
47626;DHT22;33342;45.574;9.252;2023-03-12T06:48:39;13.90;99.90
47626;DHT22;33342;45.574;9.252;2023-03-12T06:51:12;13.90;99.90
47626;DHT22;33342;45.574;9.252;2023-03-12T06:53:39;13.90;99.90
47626;DHT22;33342;45.574;9.252;2023-03-12T06:56:08;14.00;99.90
47626;DHT22;33342;45.574;9.252;2023-03-12T06:58:35;14.00;99.90
47626;DHT22;33342;45.574;9.252;2023-03-12T07:01:03;14.00;99.90
47626;DHT22;33342;45.574;9.252;2023-03-12T07:03:33;14.00;99.90
47626;DHT22;33342;45.574;9.252;2023-03-12T07:06:00;14.00;99.90
47626;DHT22;33342;45.574;9.252;2023-03-12T07:08:27;14.00;99.90
47626;DHT22;33342;45.574;9.252;2023-03-12T07:10:58;14.00;99.90
47626;DHT22;33342;45.574;9.252;2023-03-12T07:13:29;14.00;99.90
47626;DHT22;33342;45.574;9.252;2023-03-12T07:15:56;14.00;99.90
47626;DHT22;33342;45.574;9.252;2023-03-12T07:18:23;14.00;99.90
47626;DHT22;33342;45.574;9.252;2023-03-12T07:20:51;14.00;99.90
47626;DHT22;33342;45.574;9.252;2023-03-12T07:23:18;14.00;99.90
47626;DHT22;33342;45.574;9.252;2023-03-12T07:25:45;14.00;99.90
47626;DHT22;33342;45.574;9.252;2023-03-12T07:28:14;14.00;99.90
47626;DHT22;33342;45.574;9.252;2023-03-12T07:30:42;14.00;99.90
47626;DHT22;33342;45.574;9.252;2023-03-12T07:33:10;14.00;99.90
47626;DHT22;33342;45.574;9.252;2023-03-12T07:35:38;14.00;99.90
47626;DHT22;33342;45.574;9.252;2023-03-12T07:38:06;14.00;99.90
47626;DHT22;33342;45.574;9.252;2023-03-12T07:40:35;14.10;99.90
47626;DHT22;33342;45.574;9.252;2023-03-12T07:43:03;14.10;99.90
47626;DHT22;33342;45.574;9.252;2023-03-12T07:45:38;14.10;99.90
47626;DHT22;33342;45.574;9.252;2023-03-12T07:48:06;14.10;99.90
47626;DHT22;33342;45.574;9.252;2023-03-12T07:50:36;14.20;99.90
47626;DHT22;33342;45.574;9.252;2023-03-12T07:53:04;14.20;99.90
47626;DHT22;33342;45.574;9.252;2023-03-12T07:55:32;14.20;99.90
47626;DHT22;33342;45.574;9.252;2023-03-12T07:57:59;14.20;99.90
47626;DHT22;33342;45.574;9.252;2023-03-12T08:00:27;14.10;99.90
47626;DHT22;33342;45.574;9.252;2023-03-12T08:02:55;14.10;99.90
47626;DHT22;33342;45.574;9.252;2023-03-12T08:05:22;14.20;99.90
47626;DHT22;33342;45.574;9.252;2023-03-12T08:07:51;14.20;99.90
47626;DHT22;33342;45.574;9.252;2023-03-12T08:10:19;14.20;99.90
47626;DHT22;33342;45.574;9.252;2023-03-12T08:12:47;14.20;99.90
47626;DHT22;33342;45.574;9.252;2023-03-12T08:15:15;14.20;99.90
47626;DHT22;33342;45.574;9.252;2023-03-12T08:17:42;14.30;99.90
47626;DHT22;33342;45.574;9.252;2023-03-12T08:20:10;14.30;99.90
47626;DHT22;33342;45.574;9.252;2023-03-12T08:22:38;14.30;99.90
47626;DHT22;33342;45.574;9.252;2023-03-12T08:25:06;14.30;99.90
47626;DHT22;33342;45.574;9.252;2023-03-12T08:27:34;14.30;99.90
47626;DHT22;33342;45.574;9.252;2023-03-12T08:30:01;14.40;99.90
47626;DHT22;33342;45.574;9.252;2023-03-12T08:32:29;14.40;99.90
47626;DHT22;33342;45.574;9.252;2023-03-12T08:34:56;14.30;99.90
47626;DHT22;33342;45.574;9.252;2023-03-12T08:37:23;14.30;99.90
47626;DHT22;33342;45.574;9.252;2023-03-12T08:39:50;14.30;99.90
47626;DHT22;33342;45.574;9.252;2023-03-12T08:42:17;14.30;99.90
47626;DHT22;33342;45.574;9.252;2023-03-12T08:44:44;14.30;99.90
47626;DHT22;33342;45.574;9.252;2023-03-12T08:47:11;14.30;99.90
47626;DHT22;33342;45.574;9.252;2023-03-12T08:49:38;14.40;99.90
47626;DHT22;33342;45.574;9.252;2023-03-12T08:52:05;14.40;99.90
47626;DHT22;33342;45.574;9.252;2023-03-12T08:54:32;14.40;99.90
47626;DHT22;33342;45.574;9.252;2023-03-12T08:57:00;14.50;99.90
47626;DHT22;33342;45.574;9.252;2023-03-12T08:59:27;14.50;99.90
47626;DHT22;33342;45.574;9.252;2023-03-12T09:01:54;14.50;99.90
47626;DHT22;33342;45.574;9.252;2023-03-12T09:04:21;14.50;99.90
47626;DHT22;33342;45.574;9.252;2023-03-12T09:06:48;14.60;99.90
47626;DHT22;33342;45.574;9.252;2023-03-12T09:09:15;14.60;99.90
47626;DHT22;33342;45.574;9.252;2023-03-12T09:11:42;14.60;99.90
47626;DHT22;33342;45.574;9.252;2023-03-12T09:14:09;14.60;99.90
47626;DHT22;33342;45.574;9.252;2023-03-12T09:16:56;14.60;99.90
47626;DHT22;33342;45.574;9.252;2023-03-12T09:19:24;14.60;99.90
47626;DHT22;33342;45.574;9.252;2023-03-12T09:21:51;14.60;99.90
47626;DHT22;33342;45.574;9.252;2023-03-12T09:24:18;14.60;99.90
47626;DHT22;33342;45.574;9.252;2023-03-12T09:26:45;14.70;99.90
47626;DHT22;33342;45.574;9.252;2023-03-12T09:29:15;14.70;99.90
47626;DHT22;33342;45.574;9.252;2023-03-12T09:31:42;14.70;99.90
47626;DHT22;33342;45.574;9.252;2023-03-12T09:34:08;14.80;99.90
47626;DHT22;33342;45.574;9.252;2023-03-12T09:36:35;14.80;99.90
47626;DHT22;33342;45.574;9.252;2023-03-12T09:39:03;14.70;99.90
47626;DHT22;33342;45.574;9.252;2023-03-12T09:41:33;14.70;99.90
47626;DHT22;33342;45.574;9.252;2023-03-12T09:49:16;14.60;99.90
47626;DHT22;33342;45.574;9.252;2023-03-12T09:51:46;14.60;99.90
47626;DHT22;33342;45.574;9.252;2023-03-12T09:56:57;14.70;99.90
47626;DHT22;33342;45.574;9.252;2023-03-12T09:59:29;14.70;99.90
47626;DHT22;33342;45.574;9.252;2023-03-12T10:01:59;14.70;99.90
47626;DHT22;33342;45.574;9.252;2023-03-12T10:07:14;14.80;99.90
47626;DHT22;33342;45.574;9.252;2023-03-12T10:15:48;14.90;99.90
47626;DHT22;33342;45.574;9.252;2023-03-12T10:21:42;15.00;99.90
47626;DHT22;33342;45.574;9.252;2023-03-12T10:26:57;15.10;99.90
47626;DHT22;33342;45.574;9.252;2023-03-12T10:29:31;15.00;99.90
47626;DHT22;33342;45.574;9.252;2023-03-12T10:32:10;15.10;99.90
47626;DHT22;33342;45.574;9.252;2023-03-12T10:34:43;15.10;99.90
47626;DHT22;33342;45.574;9.252;2023-03-12T10:37:19;15.10;99.90
47626;DHT22;33342;45.574;9.252;2023-03-12T10:39:48;15.20;99.90
47626;DHT22;33342;45.574;9.252;2023-03-12T10:42:19;15.20;99.90
47626;DHT22;33342;45.574;9.252;2023-03-12T10:44:59;15.20;99.90
47626;DHT22;33342;45.574;9.252;2023-03-12T10:50:20;15.20;99.90
47626;DHT22;33342;45.574;9.252;2023-03-12T10:52:50;15.20;99.90
47626;DHT22;33342;45.574;9.252;2023-03-12T10:57:48;15.30;99.90
47626;DHT22;33342;45.574;9.252;2023-03-12T11:00:27;15.30;99.90
47626;DHT22;33342;45.574;9.252;2023-03-12T11:03:01;15.30;99.90
47626;DHT22;33342;45.574;9.252;2023-03-12T11:05:32;15.30;99.90
47626;DHT22;33342;45.574;9.252;2023-03-12T11:08:03;15.40;99.90
47626;DHT22;33342;45.574;9.252;2023-03-12T11:10:45;15.40;99.90
47626;DHT22;33342;45.574;9.252;2023-03-12T11:13:39;15.40;99.90
47626;DHT22;33342;45.574;9.252;2023-03-12T11:19:03;15.40;99.90
47626;DHT22;33342;45.574;9.252;2023-03-12T11:21:33;15.50;99.90
47626;DHT22;33342;45.574;9.252;2023-03-12T11:24:06;15.50;99.90
47626;DHT22;33342;45.574;9.252;2023-03-12T11:29:17;15.60;99.90
47626;DHT22;33342;45.574;9.252;2023-03-12T11:34:38;15.60;99.90
47626;DHT22;33342;45.574;9.252;2023-03-12T11:48:25;15.70;99.90
47626;DHT22;33342;45.574;9.252;2023-03-12T11:59:38;15.70;99.90
47626;DHT22;33342;45.574;9.252;2023-03-12T12:13:37;15.90;99.90
47626;DHT22;33342;45.574;9.252;2023-03-12T12:16:28;15.90;99.90
47626;DHT22;33342;45.574;9.252;2023-03-12T12:24:38;16.00;99.90
47626;DHT22;33342;45.574;9.252;2023-03-12T12:29:54;16.00;99.90
47626;DHT22;33342;45.574;9.252;2023-03-12T12:35:18;16.00;99.90
47626;DHT22;33342;45.574;9.252;2023-03-12T12:40:37;16.10;99.90
47626;DHT22;33342;45.574;9.252;2023-03-12T12:43:29;16.10;99.90
47626;DHT22;33342;45.574;9.252;2023-03-12T12:46:02;16.10;99.90
47626;DHT22;33342;45.574;9.252;2023-03-12T12:48:40;16.10;99.90
47626;DHT22;33342;45.574;9.252;2023-03-12T12:51:09;16.20;99.90
47626;DHT22;33342;45.574;9.252;2023-03-12T12:53:53;16.20;99.90
47626;DHT22;33342;45.574;9.252;2023-03-12T13:01:30;16.30;99.90
47626;DHT22;33342;45.574;9.252;2023-03-12T13:04:03;16.30;99.90
47626;DHT22;33342;45.574;9.252;2023-03-12T13:12:52;16.40;99.90
47626;DHT22;33342;45.574;9.252;2023-03-12T13:14:55;16.50;99.90
47626;DHT22;33342;45.574;9.252;2023-03-12T13:17:29;16.50;99.90
47626;DHT22;33342;45.574;9.252;2023-03-12T13:22:55;16.60;99.90
47626;DHT22;33342;45.574;9.252;2023-03-12T13:30:49;16.80;99.90
47626;DHT22;33342;45.574;9.252;2023-03-12T13:33:19;16.80;99.90
47626;DHT22;33342;45.574;9.252;2023-03-12T13:38:59;16.90;99.90
47626;DHT22;33342;45.574;9.252;2023-03-12T13:44:03;17.10;99.90
47626;DHT22;33342;45.574;9.252;2023-03-12T13:46:47;17.10;99.90
47626;DHT22;33342;45.574;9.252;2023-03-12T13:49:16;17.30;99.90
47626;DHT22;33342;45.574;9.252;2023-03-12T13:51:52;17.30;99.90
47626;DHT22;33342;45.574;9.252;2023-03-12T13:54:23;17.40;99.90
47626;DHT22;33342;45.574;9.252;2023-03-12T13:56:58;17.50;99.90
47626;DHT22;33342;45.574;9.252;2023-03-12T13:59:26;17.50;99.90
47626;DHT22;33342;45.574;9.252;2023-03-12T14:01:58;17.60;99.90
47626;DHT22;33342;45.574;9.252;2023-03-12T14:04:33;17.70;99.90
47626;DHT22;33342;45.574;9.252;2023-03-12T14:07:17;17.80;99.90
47626;DHT22;33342;45.574;9.252;2023-03-12T14:15:48;18.20;99.90
47626;DHT22;33342;45.574;9.252;2023-03-12T14:18:22;18.30;99.90
47626;DHT22;33342;45.574;9.252;2023-03-12T14:20:55;18.50;99.90
47626;DHT22;33342;45.574;9.252;2023-03-12T14:23:27;18.70;99.90
47626;DHT22;33342;45.574;9.252;2023-03-12T14:25:58;18.80;99.90
47626;DHT22;33342;45.574;9.252;2023-03-12T14:28:31;18.90;99.90
47626;DHT22;33342;45.574;9.252;2023-03-12T14:31:11;19.20;99.90
47626;DHT22;33342;45.574;9.252;2023-03-12T14:36:59;19.50;99.90
47626;DHT22;33342;45.574;9.252;2023-03-12T14:39:34;19.70;99.90
47626;DHT22;33342;45.574;9.252;2023-03-12T14:42:03;19.90;99.90
47626;DHT22;33342;45.574;9.252;2023-03-12T14:44:33;20.10;99.90
47626;DHT22;33342;45.574;9.252;2023-03-12T14:47:03;20.20;99.90
47626;DHT22;33342;45.574;9.252;2023-03-12T14:49:39;20.30;99.90
47626;DHT22;33342;45.574;9.252;2023-03-12T14:52:09;20.40;99.90
47626;DHT22;33342;45.574;9.252;2023-03-12T14:54:37;20.60;99.90
47626;DHT22;33342;45.574;9.252;2023-03-12T14:57:12;20.90;99.90
47626;DHT22;33342;45.574;9.252;2023-03-12T14:59:41;21.30;99.90
47626;DHT22;33342;45.574;9.252;2023-03-12T15:02:18;21.90;99.90
47626;DHT22;33342;45.574;9.252;2023-03-12T15:04:47;22.80;99.90
47626;DHT22;33342;45.574;9.252;2023-03-12T15:07:21;23.40;99.90
47626;DHT22;33342;45.574;9.252;2023-03-12T15:09:50;24.00;99.90
47626;DHT22;33342;45.574;9.252;2023-03-12T15:14:44;24.90;99.90
47626;DHT22;33342;45.574;9.252;2023-03-12T15:17:19;25.40;99.90
47626;DHT22;33342;45.574;9.252;2023-03-12T15:19:48;25.80;99.90
47626;DHT22;33342;45.574;9.252;2023-03-12T15:22:18;26.30;99.90
47626;DHT22;33342;45.574;9.252;2023-03-12T15:24:46;26.60;99.90
47626;DHT22;33342;45.574;9.252;2023-03-12T15:29:55;27.10;99.90
47626;DHT22;33342;45.574;9.252;2023-03-12T15:32:24;27.20;99.90
47626;DHT22;33342;45.574;9.252;2023-03-12T15:34:53;26.90;99.90
47626;DHT22;33342;45.574;9.252;2023-03-12T15:37:35;26.40;99.90
47626;DHT22;33342;45.574;9.252;2023-03-12T15:40:20;25.80;99.90
47626;DHT22;33342;45.574;9.252;2023-03-12T15:42:48;25.10;99.90
47626;DHT22;33342;45.574;9.252;2023-03-12T15:45:23;24.60;99.90
47626;DHT22;33342;45.574;9.252;2023-03-12T15:47:52;24.10;99.90
47626;DHT22;33342;45.574;9.252;2023-03-12T15:50:29;23.80;99.90
47626;DHT22;33342;45.574;9.252;2023-03-12T15:55:28;23.60;99.90
47626;DHT22;33342;45.574;9.252;2023-03-12T15:57:57;23.90;99.90
47626;DHT22;33342;45.574;9.252;2023-03-12T16:00:28;24.30;99.90
47626;DHT22;33342;45.574;9.252;2023-03-12T16:03:00;24.80;99.90
47626;DHT22;33342;45.574;9.252;2023-03-12T16:05:33;25.00;99.90
47626;DHT22;33342;45.574;9.252;2023-03-12T16:08:15;25.20;99.90
47626;DHT22;33342;45.574;9.252;2023-03-12T16:10:47;25.30;99.90
47626;DHT22;33342;45.574;9.252;2023-03-12T16:13:17;25.30;99.90
47626;DHT22;33342;45.574;9.252;2023-03-12T16:15:46;25.10;99.90
47626;DHT22;33342;45.574;9.252;2023-03-12T16:18:16;25.00;99.90
47626;DHT22;33342;45.574;9.252;2023-03-12T16:20:44;24.80;99.90
47626;DHT22;33342;45.574;9.252;2023-03-12T16:23:11;24.60;99.90
47626;DHT22;33342;45.574;9.252;2023-03-12T16:25:41;24.40;99.90
47626;DHT22;33342;45.574;9.252;2023-03-12T16:28:12;24.40;99.90
47626;DHT22;33342;45.574;9.252;2023-03-12T16:30:40;24.50;99.90
47626;DHT22;33342;45.574;9.252;2023-03-12T16:33:10;24.50;99.90
47626;DHT22;33342;45.574;9.252;2023-03-12T16:35:41;24.40;99.90
47626;DHT22;33342;45.574;9.252;2023-03-12T16:38:09;24.10;99.90
47626;DHT22;33342;45.574;9.252;2023-03-12T16:40:48;23.70;99.90
47626;DHT22;33342;45.574;9.252;2023-03-12T16:43:21;23.30;99.90
47626;DHT22;33342;45.574;9.252;2023-03-12T16:45:50;22.90;99.90
47626;DHT22;33342;45.574;9.252;2023-03-12T16:48:20;22.50;99.90
47626;DHT22;33342;45.574;9.252;2023-03-12T16:50:51;22.20;99.90
47626;DHT22;33342;45.574;9.252;2023-03-12T16:53:19;22.00;99.90
47626;DHT22;33342;45.574;9.252;2023-03-12T16:55:51;21.70;99.90
47626;DHT22;33342;45.574;9.252;2023-03-12T16:58:19;21.50;99.90
47626;DHT22;33342;45.574;9.252;2023-03-12T17:00:46;21.30;99.90
47626;DHT22;33342;45.574;9.252;2023-03-12T17:03:38;21.20;99.90
47626;DHT22;33342;45.574;9.252;2023-03-12T17:06:06;21.00;99.90
47626;DHT22;33342;45.574;9.252;2023-03-12T17:08:33;20.80;99.90
47626;DHT22;33342;45.574;9.252;2023-03-12T17:11:01;20.60;99.90
47626;DHT22;33342;45.574;9.252;2023-03-12T17:13:30;20.50;99.90
47626;DHT22;33342;45.574;9.252;2023-03-12T17:15:57;20.30;99.90
47626;DHT22;33342;45.574;9.252;2023-03-12T17:18:24;20.10;99.90
47626;DHT22;33342;45.574;9.252;2023-03-12T17:20:51;20.00;99.90
47626;DHT22;33342;45.574;9.252;2023-03-12T17:23:18;19.90;99.90
47626;DHT22;33342;45.574;9.252;2023-03-12T17:25:45;19.80;99.90
47626;DHT22;33342;45.574;9.252;2023-03-12T17:28:13;19.70;99.90
47626;DHT22;33342;45.574;9.252;2023-03-12T17:30:41;19.60;99.90
47626;DHT22;33342;45.574;9.252;2023-03-12T17:33:12;19.40;99.90
47626;DHT22;33342;45.574;9.252;2023-03-12T17:35:40;19.30;99.90
47626;DHT22;33342;45.574;9.252;2023-03-12T17:38:07;19.30;99.90
47626;DHT22;33342;45.574;9.252;2023-03-12T17:40:38;19.20;99.90
47626;DHT22;33342;45.574;9.252;2023-03-12T17:43:07;19.10;99.90
47626;DHT22;33342;45.574;9.252;2023-03-12T17:45:34;19.00;99.90
47626;DHT22;33342;45.574;9.252;2023-03-12T17:48:03;19.00;99.90
47626;DHT22;33342;45.574;9.252;2023-03-12T17:50:30;18.90;99.90
47626;DHT22;33342;45.574;9.252;2023-03-12T17:52:57;18.80;99.90
47626;DHT22;33342;45.574;9.252;2023-03-12T17:55:25;18.70;99.90